North Little Rock, Arkansas
Current Conditions -  °F | °C
As of 3:53 AM on Thursday 29 Jan 2015 (Local Time) from KLIT Reporting Station
Scattered Clouds Scattered Clouds  
Wind Chill: 57°   Ceiling: Unl
Heat Index: 57°   Visibility: 10mi
Dew Point: 41°   Wind: 15mph
Humidity: 55%   Direction: 220°SW
Pressure: 30.01"   Gusts: 24mph
Location:  34.76°N, 92.27°W
Report Text: KLIT 290953Z 22013G21KT 10SM SCT120 14/05 A3001 RMK AO2 SLP163 T01390050
Loading
Personal Weather Stations






























Interactive Weather Map New forecast layout! Learn more

10-Day Weather Forecast

Advertisements
Track Severe Weather on mobile